SWA2261 KLAX-KOAK
Flight info
| Callsign | SWA2261 |
|---|---|
| Flight time | 0h 52m |
| Altitude | 32000 |
| Route | LADYJ4 COREZ RGOOD EMZOH4 |
| Aircraft | B738/M-SDE2E3FGHIRWXY/LB1 |
Departure
| Time | 2026-05-04 05:28 |
|---|---|
| Airport | Los Angeles International Airport (KLAX) |
Arrival
| Time | 2026-05-04 06:21 |
|---|---|
| Airport | San Francisco Bay Oakland International Airport (KOAK) |
| Time | Latitude | Longitude | Altitude | Speed | Heading |
|---|---|---|---|---|---|
| 2026-05-04 05:06 | 33.94719 | -118.40076 | 134 ft | 0 kts | 263° |
| 2026-05-04 05:21 | 33.94719 | -118.40070 | 134 ft | 4 kts | 265° |
| 2026-05-04 05:21 | 33.94716 | -118.40039 | 134 ft | 4 kts | 302° |
| 2026-05-04 05:21 | 33.94698 | -118.40023 | 134 ft | 2 kts | 356° |
| 2026-05-04 05:22 | 33.94692 | -118.40022 | 134 ft | 0 kts | 356° |
| 2026-05-04 05:24 | 33.94693 | -118.40022 | 134 ft | 1 kts | 356° |
| 2026-05-04 05:24 | 33.94712 | -118.40023 | 134 ft | 2 kts | 356° |
| 2026-05-04 05:24 | 33.94716 | -118.40024 | 134 ft | 0 kts | 357° |
| 2026-05-04 05:25 | 33.94733 | -118.40025 | 134 ft | 5 kts | 357° |
| 2026-05-04 05:25 | 33.94777 | -118.40021 | 134 ft | 8 kts | 7° |
| 2026-05-04 05:25 | 33.94831 | -118.40028 | 134 ft | 7 kts | 325° |
| 2026-05-04 05:25 | 33.94847 | -118.40046 | 134 ft | 3 kts | 310° |
| 2026-05-04 05:26 | 33.94873 | -118.40069 | 134 ft | 7 kts | 336° |
| 2026-05-04 05:26 | 33.94926 | -118.40079 | 134 ft | 3 kts | 355° |
| 2026-05-04 05:26 | 33.94936 | -118.40081 | 134 ft | 4 kts | 355° |
| 2026-05-04 05:26 | 33.94998 | -118.40088 | 134 ft | 11 kts | 350° |
| 2026-05-04 05:27 | 33.95024 | -118.40100 | 134 ft | 9 kts | 321° |
| 2026-05-04 05:28 | 33.94530 | -118.45698 | 2558 ft | 160 kts | 263° |
| 2026-05-04 05:29 | 33.94424 | -118.47102 | 3019 ft | 184 kts | 265° |
| 2026-05-04 05:29 | 33.94336 | -118.48750 | 3384 ft | 211 kts | 266° |
| 2026-05-04 05:29 | 33.94242 | -118.50610 | 3758 ft | 237 kts | 265° |
| 2026-05-04 05:29 | 33.94147 | -118.52017 | 4199 ft | 251 kts | 264° |
| 2026-05-04 05:31 | 33.96835 | -118.66573 | 8524 ft | 292 kts | 332° |
| 2026-05-04 05:31 | 33.98728 | -118.67439 | 9572 ft | 292 kts | 347° |
| 2026-05-04 05:32 | 34.00705 | -118.67690 | 10109 ft | 299 kts | 359° |
| 2026-05-04 05:32 | 34.02910 | -118.67565 | 10253 ft | 317 kts | 4° |
| 2026-05-04 05:32 | 34.05163 | -118.67390 | 10699 ft | 337 kts | 3° |
| 2026-05-04 05:33 | 34.10065 | -118.66729 | 11777 ft | 368 kts | 9° |
| 2026-05-04 05:33 | 34.12607 | -118.66103 | 12532 ft | 375 kts | 11° |
| 2026-05-04 05:33 | 34.15184 | -118.65459 | 13367 ft | 379 kts | 10° |
| 2026-05-04 05:33 | 34.17790 | -118.64826 | 14226 ft | 382 kts | 10° |
| 2026-05-04 05:34 | 34.20415 | -118.64200 | 15053 ft | 386 kts | 10° |
| 2026-05-04 05:34 | 34.23052 | -118.63766 | 15836 ft | 388 kts | 3° |
| 2026-05-04 05:34 | 34.25691 | -118.63760 | 16583 ft | 391 kts | 355° |
| 2026-05-04 05:34 | 34.28398 | -118.64128 | 17331 ft | 394 kts | 350° |
| 2026-05-04 05:35 | 34.31111 | -118.64720 | 18054 ft | 397 kts | 348° |
| 2026-05-04 05:35 | 34.33843 | -118.65377 | 18724 ft | 401 kts | 348° |
| 2026-05-04 05:35 | 34.36606 | -118.66021 | 19374 ft | 405 kts | 348° |
| 2026-05-04 05:35 | 34.39385 | -118.66687 | 20001 ft | 409 kts | 346° |
| 2026-05-04 05:36 | 34.42124 | -118.67663 | 20628 ft | 412 kts | 340° |
| 2026-05-04 05:36 | 34.44747 | -118.69008 | 21226 ft | 415 kts | 334° |
| 2026-05-04 05:36 | 34.47325 | -118.70644 | 21813 ft | 419 kts | 330° |
| 2026-05-04 05:36 | 34.49856 | -118.72440 | 22371 ft | 422 kts | 329° |
| 2026-05-04 05:37 | 34.52376 | -118.74249 | 22893 ft | 426 kts | 329° |
| 2026-05-04 05:37 | 34.54942 | -118.76074 | 23431 ft | 428 kts | 329° |
| 2026-05-04 05:37 | 34.57525 | -118.77910 | 23936 ft | 432 kts | 329° |
| 2026-05-04 05:38 | 34.62768 | -118.81610 | 24848 ft | 439 kts | 329° |
| 2026-05-04 05:38 | 34.65417 | -118.83487 | 25293 ft | 442 kts | 329° |
| 2026-05-04 05:38 | 34.68053 | -118.85359 | 25723 ft | 445 kts | 328° |
| 2026-05-04 05:38 | 34.70737 | -118.87266 | 26112 ft | 448 kts | 328° |
| 2026-05-04 05:39 | 34.73451 | -118.89197 | 26490 ft | 451 kts | 328° |
| 2026-05-04 05:39 | 34.78901 | -118.93077 | 27239 ft | 456 kts | 328° |
| 2026-05-04 05:39 | 34.81653 | -118.95034 | 27584 ft | 459 kts | 328° |
| 2026-05-04 05:40 | 34.87168 | -118.98972 | 28245 ft | 464 kts | 327° |
| 2026-05-04 05:40 | 34.89959 | -119.00970 | 28553 ft | 466 kts | 327° |
| 2026-05-04 05:40 | 34.92774 | -119.02988 | 28884 ft | 468 kts | 327° |
| 2026-05-04 05:41 | 34.95582 | -119.04999 | 29350 ft | 466 kts | 327° |
| 2026-05-04 05:41 | 34.98341 | -119.06980 | 29793 ft | 465 kts | 327° |
| 2026-05-04 05:41 | 35.01138 | -119.08984 | 30216 ft | 465 kts | 327° |
| 2026-05-04 05:41 | 35.03932 | -119.10988 | 30627 ft | 464 kts | 327° |
| 2026-05-04 05:42 | 35.06717 | -119.12989 | 31024 ft | 464 kts | 327° |
| 2026-05-04 05:42 | 35.09500 | -119.14991 | 31422 ft | 464 kts | 326° |
| 2026-05-04 05:42 | 35.12285 | -119.16996 | 31825 ft | 464 kts | 326° |
| 2026-05-04 05:42 | 35.15031 | -119.18975 | 32193 ft | 464 kts | 326° |
| 2026-05-04 05:43 | 35.17810 | -119.20979 | 32590 ft | 463 kts | 326° |
| 2026-05-04 05:43 | 35.20594 | -119.22989 | 32973 ft | 463 kts | 326° |
| 2026-05-04 05:43 | 35.23365 | -119.24991 | 33313 ft | 463 kts | 326° |
| 2026-05-04 05:45 | 35.42790 | -119.39012 | 33996 ft | 460 kts | 327° |
| 2026-05-04 05:47 | 35.63776 | -119.56635 | 33991 ft | 455 kts | 320° |
| 2026-05-04 05:47 | 35.68631 | -119.61593 | 33993 ft | 455 kts | 320° |
| 2026-05-04 05:48 | 35.73502 | -119.66572 | 33994 ft | 455 kts | 321° |
| 2026-05-04 05:48 | 35.77550 | -119.70726 | 33997 ft | 454 kts | 321° |
| 2026-05-04 05:49 | 35.82383 | -119.75698 | 34000 ft | 454 kts | 321° |
| 2026-05-04 05:49 | 35.87231 | -119.80692 | 34001 ft | 454 kts | 321° |
| 2026-05-04 05:51 | 36.05672 | -120.01966 | 34004 ft | 454 kts | 317° |
| 2026-05-04 05:52 | 36.10223 | -120.07409 | 34003 ft | 454 kts | 317° |
| 2026-05-04 05:52 | 36.14766 | -120.12842 | 34003 ft | 454 kts | 317° |
| 2026-05-04 05:54 | 36.32918 | -120.34492 | 34005 ft | 452 kts | 318° |
| 2026-05-04 05:55 | 36.37433 | -120.39904 | 34006 ft | 451 kts | 317° |
| 2026-05-04 05:55 | 36.41915 | -120.45304 | 34008 ft | 449 kts | 317° |
| 2026-05-04 05:56 | 36.44132 | -120.47982 | 34006 ft | 438 kts | 317° |
| 2026-05-04 05:56 | 36.46287 | -120.50587 | 34003 ft | 422 kts | 318° |
| 2026-05-04 05:56 | 36.48353 | -120.53085 | 34001 ft | 406 kts | 318° |
| 2026-05-04 05:56 | 36.50317 | -120.55461 | 34001 ft | 392 kts | 318° |
| 2026-05-04 05:57 | 36.52236 | -120.57781 | 34001 ft | 378 kts | 318° |
| 2026-05-04 05:57 | 36.54097 | -120.60014 | 34001 ft | 364 kts | 320° |
| 2026-05-04 05:57 | 36.55951 | -120.62078 | 34000 ft | 352 kts | 321° |
| 2026-05-04 05:57 | 36.57766 | -120.64056 | 34000 ft | 340 kts | 321° |
| 2026-05-04 05:58 | 36.61248 | -120.67881 | 34017 ft | 333 kts | 321° |
| 2026-05-04 05:58 | 36.64722 | -120.71723 | 34036 ft | 340 kts | 321° |
| 2026-05-04 05:59 | 36.68249 | -120.75639 | 34012 ft | 338 kts | 321° |
| 2026-05-04 05:59 | 36.70000 | -120.77588 | 33675 ft | 339 kts | 321° |
| 2026-05-04 05:59 | 36.71789 | -120.79580 | 32860 ft | 352 kts | 320° |
| 2026-05-04 06:00 | 36.73659 | -120.81664 | 31911 ft | 367 kts | 320° |
| 2026-05-04 06:00 | 36.75581 | -120.83804 | 31180 ft | 375 kts | 320° |
| 2026-05-04 06:00 | 36.77564 | -120.86015 | 30253 ft | 386 kts | 320° |
| 2026-05-04 06:00 | 36.79594 | -120.88262 | 29330 ft | 395 kts | 320° |
| 2026-05-04 06:01 | 36.81671 | -120.90564 | 28391 ft | 402 kts | 320° |
| 2026-05-04 06:01 | 36.83754 | -120.92875 | 27430 ft | 409 kts | 320° |
| 2026-05-04 06:03 | 36.98991 | -121.09789 | 20619 ft | 421 kts | 320° |
| 2026-05-04 06:03 | 37.01171 | -121.12224 | 19693 ft | 420 kts | 320° |
| 2026-05-04 06:05 | 37.15692 | -121.28566 | 14500 ft | 360 kts | 319° |
| 2026-05-04 06:05 | 37.19272 | -121.32716 | 13247 ft | 341 kts | 319° |
| 2026-05-04 06:05 | 37.20994 | -121.34720 | 12621 ft | 334 kts | 319° |
| 2026-05-04 06:06 | 37.22683 | -121.36686 | 12073 ft | 325 kts | 318° |
| 2026-05-04 06:06 | 37.24318 | -121.38592 | 11790 ft | 318 kts | 318° |
| 2026-05-04 06:06 | 37.25881 | -121.40419 | 11330 ft | 325 kts | 318° |
| 2026-05-04 06:06 | 37.27606 | -121.42433 | 10807 ft | 329 kts | 318° |
| 2026-05-04 06:07 | 37.29265 | -121.44372 | 10534 ft | 320 kts | 318° |
| 2026-05-04 06:07 | 37.30865 | -121.46244 | 10376 ft | 307 kts | 318° |
| 2026-05-04 06:07 | 37.32403 | -121.48043 | 10217 ft | 295 kts | 318° |
| 2026-05-04 06:07 | 37.33875 | -121.49765 | 10064 ft | 283 kts | 318° |
| 2026-05-04 06:08 | 37.35294 | -121.51426 | 9792 ft | 277 kts | 318° |
| 2026-05-04 06:08 | 37.36702 | -121.53075 | 9415 ft | 275 kts | 318° |
| 2026-05-04 06:08 | 37.38084 | -121.54683 | 9009 ft | 275 kts | 318° |
| 2026-05-04 06:08 | 37.39504 | -121.56301 | 8626 ft | 273 kts | 318° |
| 2026-05-04 06:09 | 37.40908 | -121.57903 | 8261 ft | 271 kts | 318° |
| 2026-05-04 06:09 | 37.42271 | -121.59459 | 7899 ft | 269 kts | 318° |
| 2026-05-04 06:11 | 37.49477 | -121.71026 | 6760 ft | 215 kts | 306° |
| 2026-05-04 06:11 | 37.50357 | -121.72571 | 6633 ft | 218 kts | 306° |
| 2026-05-04 06:13 | 37.56533 | -121.83343 | 5438 ft | 214 kts | 306° |
| 2026-05-04 06:14 | 37.61339 | -121.91749 | 4355 ft | 189 kts | 304° |
| 2026-05-04 06:14 | 37.62106 | -121.93094 | 4182 ft | 189 kts | 304° |
| 2026-05-04 06:15 | 37.62875 | -121.94444 | 4015 ft | 189 kts | 304° |
| 2026-05-04 06:15 | 37.63640 | -121.95781 | 3842 ft | 188 kts | 304° |
| 2026-05-04 06:15 | 37.64396 | -121.97104 | 3675 ft | 188 kts | 304° |
| 2026-05-04 06:15 | 37.65159 | -121.98442 | 3498 ft | 187 kts | 303° |
| 2026-05-04 06:16 | 37.65831 | -121.99842 | 3256 ft | 185 kts | 296° |
| 2026-05-04 06:16 | 37.66370 | -122.01309 | 3045 ft | 183 kts | 291° |
| 2026-05-04 06:16 | 37.66824 | -122.02797 | 2822 ft | 179 kts | 288° |
| 2026-05-04 06:16 | 37.67253 | -122.04246 | 2566 ft | 175 kts | 289° |
| 2026-05-04 06:17 | 37.67687 | -122.05637 | 2407 ft | 165 kts | 290° |
| 2026-05-04 06:17 | 37.68096 | -122.06937 | 2217 ft | 155 kts | 290° |
| 2026-05-04 06:17 | 37.68495 | -122.08170 | 1977 ft | 148 kts | 290° |
| 2026-05-04 06:17 | 37.68879 | -122.09353 | 1810 ft | 144 kts | 290° |
| 2026-05-04 06:18 | 37.69250 | -122.10495 | 1652 ft | 134 kts | 290° |
| 2026-05-04 06:18 | 37.69595 | -122.11559 | 1445 ft | 127 kts | 290° |
| 2026-05-04 06:18 | 37.69923 | -122.12570 | 1267 ft | 122 kts | 291° |
| 2026-05-04 06:20 | 37.72111 | -122.19326 | 223 ft | 118 kts | 290° |
| 2026-05-04 06:20 | 37.72420 | -122.20281 | 63 ft | 117 kts | 290° |
| 2026-05-04 06:21 | 37.73010 | -122.21929 | 14 ft | 11 kts | 342° |
| 2026-05-04 06:21 | 37.73073 | -122.21946 | 14 ft | 8 kts | 346° |